sensor_id;sensor_type;location;lat;lon;timestamp;P1;durP1;ratioP1;P2;durP2;ratioP2
10721;SDS011;5412;59.450;18.124;2022-11-13T00:00:46;5.75;;;2.22;;
10721;SDS011;5412;59.450;18.124;2022-11-13T00:03:11;3.13;;;1.80;;
10721;SDS011;5412;59.450;18.124;2022-11-13T00:05:37;3.53;;;1.27;;
10721;SDS011;5412;59.450;18.124;2022-11-13T00:08:03;2.78;;;1.33;;
10721;SDS011;5412;59.450;18.124;2022-11-13T00:10:28;2.78;;;1.40;;
10721;SDS011;5412;59.450;18.124;2022-11-13T00:12:54;4.63;;;1.50;;
10721;SDS011;5412;59.450;18.124;2022-11-13T00:15:20;4.47;;;1.55;;
10721;SDS011;5412;59.450;18.124;2022-11-13T00:17:46;3.65;;;1.75;;
10721;SDS011;5412;59.450;18.124;2022-11-13T00:20:11;2.40;;;1.48;;
10721;SDS011;5412;59.450;18.124;2022-11-13T00:22:37;6.45;;;2.03;;
10721;SDS011;5412;59.450;18.124;2022-11-13T00:25:03;4.68;;;1.70;;
10721;SDS011;5412;59.450;18.124;2022-11-13T00:27:29;2.28;;;1.42;;
10721;SDS011;5412;59.450;18.124;2022-11-13T00:29:55;5.03;;;2.03;;
10721;SDS011;5412;59.450;18.124;2022-11-13T00:32:21;4.15;;;1.90;;
10721;SDS011;5412;59.450;18.124;2022-11-13T00:34:46;3.63;;;2.03;;
10721;SDS011;5412;59.450;18.124;2022-11-13T00:37:12;6.35;;;1.88;;
10721;SDS011;5412;59.450;18.124;2022-11-13T00:39:38;4.25;;;1.70;;
10721;SDS011;5412;59.450;18.124;2022-11-13T00:42:04;5.22;;;2.00;;
10721;SDS011;5412;59.450;18.124;2022-11-13T00:44:29;4.05;;;1.60;;
10721;SDS011;5412;59.450;18.124;2022-11-13T00:46:55;3.63;;;1.67;;
10721;SDS011;5412;59.450;18.124;2022-11-13T00:49:21;3.28;;;1.55;;
10721;SDS011;5412;59.450;18.124;2022-11-13T00:51:47;4.07;;;1.48;;
10721;SDS011;5412;59.450;18.124;2022-11-13T00:54:12;3.45;;;1.75;;
10721;SDS011;5412;59.450;18.124;2022-11-13T00:56:38;5.28;;;1.40;;
10721;SDS011;5412;59.450;18.124;2022-11-13T00:59:04;3.13;;;1.67;;
10721;SDS011;5412;59.450;18.124;2022-11-13T01:01:29;2.55;;;1.45;;
10721;SDS011;5412;59.450;18.124;2022-11-13T01:03:55;2.88;;;1.35;;
10721;SDS011;5412;59.450;18.124;2022-11-13T01:06:22;3.45;;;1.77;;
10721;SDS011;5412;59.450;18.124;2022-11-13T01:08:52;2.97;;;1.63;;
10721;SDS011;5412;59.450;18.124;2022-11-13T01:11:20;2.90;;;1.50;;
10721;SDS011;5412;59.450;18.124;2022-11-13T01:13:48;3.15;;;1.30;;
10721;SDS011;5412;59.450;18.124;2022-11-13T01:16:15;5.70;;;1.48;;
10721;SDS011;5412;59.450;18.124;2022-11-13T01:18:42;3.28;;;1.80;;
10721;SDS011;5412;59.450;18.124;2022-11-13T01:21:12;2.30;;;1.50;;
10721;SDS011;5412;59.450;18.124;2022-11-13T01:23:41;4.80;;;1.30;;
10721;SDS011;5412;59.450;18.124;2022-11-13T01:28:40;5.90;;;1.50;;
10721;SDS011;5412;59.450;18.124;2022-11-13T01:31:07;2.60;;;1.52;;
10721;SDS011;5412;59.450;18.124;2022-11-13T01:33:34;1.85;;;1.20;;
10721;SDS011;5412;59.450;18.124;2022-11-13T01:36:02;3.60;;;1.48;;
10721;SDS011;5412;59.450;18.124;2022-11-13T01:38:32;2.15;;;1.23;;
10721;SDS011;5412;59.450;18.124;2022-11-13T01:40:59;1.98;;;1.38;;
10721;SDS011;5412;59.450;18.124;2022-11-13T01:43:26;1.50;;;1.00;;
10721;SDS011;5412;59.450;18.124;2022-11-13T01:46:34;3.42;;;1.75;;
10721;SDS011;5412;59.450;18.124;2022-11-13T01:51:30;2.75;;;1.35;;
10721;SDS011;5412;59.450;18.124;2022-11-13T01:53:58;3.22;;;1.48;;
10721;SDS011;5412;59.450;18.124;2022-11-13T01:56:26;3.75;;;1.38;;
10721;SDS011;5412;59.450;18.124;2022-11-13T01:58:55;3.58;;;1.20;;
10721;SDS011;5412;59.450;18.124;2022-11-13T02:01:26;2.20;;;1.33;;
10721;SDS011;5412;59.450;18.124;2022-11-13T02:03:51;3.58;;;1.15;;
10721;SDS011;5412;59.450;18.124;2022-11-13T02:06:18;2.70;;;1.27;;
10721;SDS011;5412;59.450;18.124;2022-11-13T02:08:44;3.83;;;1.70;;
10721;SDS011;5412;59.450;18.124;2022-11-13T02:11:10;1.90;;;1.40;;
10721;SDS011;5412;59.450;18.124;2022-11-13T02:13:36;2.97;;;1.27;;
10721;SDS011;5412;59.450;18.124;2022-11-13T02:16:03;3.55;;;1.20;;
10721;SDS011;5412;59.450;18.124;2022-11-13T02:18:32;4.55;;;1.70;;
10721;SDS011;5412;59.450;18.124;2022-11-13T02:21:04;2.38;;;1.30;;
10721;SDS011;5412;59.450;18.124;2022-11-13T02:23:54;2.70;;;1.00;;
10721;SDS011;5412;59.450;18.124;2022-11-13T02:26:39;2.65;;;1.38;;
10721;SDS011;5412;59.450;18.124;2022-11-13T02:29:06;2.90;;;1.38;;
10721;SDS011;5412;59.450;18.124;2022-11-13T02:31:32;2.63;;;1.15;;
10721;SDS011;5412;59.450;18.124;2022-11-13T02:34:00;1.92;;;1.10;;
10721;SDS011;5412;59.450;18.124;2022-11-13T02:36:26;2.05;;;1.17;;
10721;SDS011;5412;59.450;18.124;2022-11-13T02:38:52;1.50;;;1.10;;
10721;SDS011;5412;59.450;18.124;2022-11-13T02:41:21;2.20;;;1.00;;
10721;SDS011;5412;59.450;18.124;2022-11-13T02:43:47;5.70;;;1.10;;
10721;SDS011;5412;59.450;18.124;2022-11-13T02:46:13;1.77;;;1.15;;
10721;SDS011;5412;59.450;18.124;2022-11-13T02:48:38;3.08;;;1.20;;
10721;SDS011;5412;59.450;18.124;2022-11-13T02:51:04;2.72;;;1.30;;
10721;SDS011;5412;59.450;18.124;2022-11-13T02:53:30;3.08;;;1.33;;
10721;SDS011;5412;59.450;18.124;2022-11-13T02:55:55;1.35;;;1.02;;
10721;SDS011;5412;59.450;18.124;2022-11-13T02:58:21;3.10;;;1.10;;
10721;SDS011;5412;59.450;18.124;2022-11-13T03:00:47;3.17;;;1.00;;
10721;SDS011;5412;59.450;18.124;2022-11-13T03:03:12;1.20;;;1.10;;
10721;SDS011;5412;59.450;18.124;2022-11-13T03:05:38;1.63;;;1.10;;
10721;SDS011;5412;59.450;18.124;2022-11-13T03:08:04;3.83;;;1.08;;
10721;SDS011;5412;59.450;18.124;2022-11-13T03:10:30;1.92;;;0.90;;
10721;SDS011;5412;59.450;18.124;2022-11-13T03:12:57;1.77;;;1.08;;
10721;SDS011;5412;59.450;18.124;2022-11-13T03:15:23;2.50;;;1.15;;
10721;SDS011;5412;59.450;18.124;2022-11-13T03:17:49;2.88;;;1.30;;
10721;SDS011;5412;59.450;18.124;2022-11-13T03:20:15;3.00;;;1.00;;
10721;SDS011;5412;59.450;18.124;2022-11-13T03:22:41;1.75;;;1.02;;
10721;SDS011;5412;59.450;18.124;2022-11-13T03:25:06;3.67;;;1.25;;
10721;SDS011;5412;59.450;18.124;2022-11-13T03:27:32;1.45;;;1.10;;
10721;SDS011;5412;59.450;18.124;2022-11-13T03:29:58;2.28;;;1.00;;
10721;SDS011;5412;59.450;18.124;2022-11-13T03:32:24;1.67;;;0.93;;
10721;SDS011;5412;59.450;18.124;2022-11-13T03:34:50;2.00;;;0.90;;
10721;SDS011;5412;59.450;18.124;2022-11-13T03:37:16;4.93;;;1.10;;
10721;SDS011;5412;59.450;18.124;2022-11-13T03:39:41;1.20;;;0.80;;
10721;SDS011;5412;59.450;18.124;2022-11-13T03:42:07;2.78;;;1.00;;
10721;SDS011;5412;59.450;18.124;2022-11-13T03:44:32;1.33;;;0.73;;
10721;SDS011;5412;59.450;18.124;2022-11-13T03:46:58;1.30;;;1.00;;
10721;SDS011;5412;59.450;18.124;2022-11-13T03:49:24;1.92;;;0.90;;
10721;SDS011;5412;59.450;18.124;2022-11-13T03:51:49;1.48;;;1.02;;
10721;SDS011;5412;59.450;18.124;2022-11-13T03:54:15;3.08;;;0.80;;
10721;SDS011;5412;59.450;18.124;2022-11-13T03:56:41;4.07;;;1.00;;
10721;SDS011;5412;59.450;18.124;2022-11-13T03:59:07;4.22;;;1.08;;
10721;SDS011;5412;59.450;18.124;2022-11-13T04:01:32;2.65;;;0.70;;
10721;SDS011;5412;59.450;18.124;2022-11-13T04:03:58;2.20;;;1.08;;
10721;SDS011;5412;59.450;18.124;2022-11-13T04:06:24;1.08;;;0.95;;
10721;SDS011;5412;59.450;18.124;2022-11-13T04:08:52;1.20;;;1.00;;
10721;SDS011;5412;59.450;18.124;2022-11-13T04:11:18;2.65;;;1.10;;
10721;SDS011;5412;59.450;18.124;2022-11-13T04:13:43;2.47;;;1.00;;
10721;SDS011;5412;59.450;18.124;2022-11-13T04:16:09;2.00;;;0.90;;
10721;SDS011;5412;59.450;18.124;2022-11-13T04:18:35;1.48;;;1.10;;
10721;SDS011;5412;59.450;18.124;2022-11-13T04:21:01;2.35;;;1.02;;
10721;SDS011;5412;59.450;18.124;2022-11-13T04:23:28;2.13;;;1.10;;
10721;SDS011;5412;59.450;18.124;2022-11-13T04:25:54;2.42;;;1.15;;
10721;SDS011;5412;59.450;18.124;2022-11-13T04:28:20;2.28;;;1.02;;
10721;SDS011;5412;59.450;18.124;2022-11-13T04:30:46;2.45;;;0.80;;
10721;SDS011;5412;59.450;18.124;2022-11-13T04:33:11;1.70;;;0.75;;
10721;SDS011;5412;59.450;18.124;2022-11-13T04:35:37;1.45;;;1.00;;
10721;SDS011;5412;59.450;18.124;2022-11-13T04:38:03;1.65;;;0.93;;
10721;SDS011;5412;59.450;18.124;2022-11-13T04:40:29;1.05;;;0.88;;
10721;SDS011;5412;59.450;18.124;2022-11-13T04:42:54;1.83;;;1.00;;
10721;SDS011;5412;59.450;18.124;2022-11-13T04:45:21;1.77;;;1.00;;
10721;SDS011;5412;59.450;18.124;2022-11-13T04:47:49;3.72;;;1.00;;
10721;SDS011;5412;59.450;18.124;2022-11-13T04:50:15;1.23;;;0.80;;
10721;SDS011;5412;59.450;18.124;2022-11-13T04:52:41;1.33;;;1.02;;
10721;SDS011;5412;59.450;18.124;2022-11-13T04:55:07;1.23;;;0.90;;
10721;SDS011;5412;59.450;18.124;2022-11-13T04:57:34;3.05;;;1.00;;
10721;SDS011;5412;59.450;18.124;2022-11-13T05:00:00;2.20;;;0.90;;
10721;SDS011;5412;59.450;18.124;2022-11-13T05:02:26;2.95;;;1.08;;
10721;SDS011;5412;59.450;18.124;2022-11-13T05:04:52;2.58;;;0.98;;
10721;SDS011;5412;59.450;18.124;2022-11-13T05:07:17;2.25;;;1.00;;
10721;SDS011;5412;59.450;18.124;2022-11-13T05:09:43;2.35;;;1.00;;
10721;SDS011;5412;59.450;18.124;2022-11-13T05:12:08;2.50;;;1.10;;
10721;SDS011;5412;59.450;18.124;2022-11-13T05:14:35;3.80;;;1.10;;
10721;SDS011;5412;59.450;18.124;2022-11-13T05:17:02;4.32;;;1.00;;
10721;SDS011;5412;59.450;18.124;2022-11-13T05:19:28;1.83;;;1.13;;
10721;SDS011;5412;59.450;18.124;2022-11-13T05:21:54;2.45;;;0.98;;
10721;SDS011;5412;59.450;18.124;2022-11-13T05:24:20;1.05;;;0.93;;
10721;SDS011;5412;59.450;18.124;2022-11-13T05:26:45;4.22;;;1.00;;
10721;SDS011;5412;59.450;18.124;2022-11-13T05:29:11;1.55;;;1.30;;
10721;SDS011;5412;59.450;18.124;2022-11-13T05:31:36;1.55;;;1.10;;
10721;SDS011;5412;59.450;18.124;2022-11-13T05:34:04;1.77;;;1.17;;
10721;SDS011;5412;59.450;18.124;2022-11-13T05:36:30;2.78;;;0.80;;
10721;SDS011;5412;59.450;18.124;2022-11-13T05:38:56;0.80;;;0.60;;
10721;SDS011;5412;59.450;18.124;2022-11-13T05:41:22;2.27;;;1.00;;
10721;SDS011;5412;59.450;18.124;2022-11-13T05:43:48;1.80;;;0.93;;
10721;SDS011;5412;59.450;18.124;2022-11-13T05:46:21;2.60;;;1.23;;
10721;SDS011;5412;59.450;18.124;2022-11-13T05:48:58;0.95;;;0.85;;
10721;SDS011;5412;59.450;18.124;2022-11-13T05:51:26;2.15;;;1.00;;
10721;SDS011;5412;59.450;18.124;2022-11-13T05:53:53;1.92;;;1.08;;
10721;SDS011;5412;59.450;18.124;2022-11-13T05:56:23;1.77;;;1.00;;
10721;SDS011;5412;59.450;18.124;2022-11-13T05:58:59;2.72;;;0.93;;
10721;SDS011;5412;59.450;18.124;2022-11-13T06:01:28;2.22;;;1.02;;
10721;SDS011;5412;59.450;18.124;2022-11-13T06:03:58;3.80;;;0.97;;
10721;SDS011;5412;59.450;18.124;2022-11-13T06:06:25;1.63;;;0.97;;
10721;SDS011;5412;59.450;18.124;2022-11-13T06:08:53;1.10;;;0.80;;
10721;SDS011;5412;59.450;18.124;2022-11-13T06:11:21;3.47;;;0.98;;
10721;SDS011;5412;59.450;18.124;2022-11-13T06:13:49;1.23;;;0.90;;
10721;SDS011;5412;59.450;18.124;2022-11-13T06:16:17;0.73;;;0.73;;
10721;SDS011;5412;59.450;18.124;2022-11-13T06:18:45;1.35;;;0.93;;
10721;SDS011;5412;59.450;18.124;2022-11-13T06:21:12;1.58;;;1.10;;
10721;SDS011;5412;59.450;18.124;2022-11-13T06:23:39;1.63;;;1.20;;
10721;SDS011;5412;59.450;18.124;2022-11-13T06:26:12;1.83;;;1.02;;
10721;SDS011;5412;59.450;18.124;2022-11-13T06:28:40;4.35;;;1.55;;
10721;SDS011;5412;59.450;18.124;2022-11-13T06:31:07;1.35;;;0.98;;
10721;SDS011;5412;59.450;18.124;2022-11-13T06:33:40;1.00;;;0.90;;
10721;SDS011;5412;59.450;18.124;2022-11-13T06:36:09;2.83;;;1.07;;
10721;SDS011;5412;59.450;18.124;2022-11-13T06:38:39;0.85;;;0.85;;
10721;SDS011;5412;59.450;18.124;2022-11-13T06:41:06;1.10;;;0.90;;
10721;SDS011;5412;59.450;18.124;2022-11-13T06:43:33;0.97;;;0.80;;
10721;SDS011;5412;59.450;18.124;2022-11-13T06:46:02;0.90;;;0.90;;
10721;SDS011;5412;59.450;18.124;2022-11-13T06:48:29;2.30;;;0.90;;
10721;SDS011;5412;59.450;18.124;2022-11-13T06:50:59;3.05;;;1.50;;
10721;SDS011;5412;59.450;18.124;2022-11-13T06:53:29;1.03;;;0.90;;
10721;SDS011;5412;59.450;18.124;2022-11-13T06:55:55;1.70;;;1.13;;
10721;SDS011;5412;59.450;18.124;2022-11-13T06:58:21;4.00;;;1.87;;
10721;SDS011;5412;59.450;18.124;2022-11-13T07:00:47;4.65;;;2.28;;
10721;SDS011;5412;59.450;18.124;2022-11-13T07:03:20;6.00;;;4.05;;
10721;SDS011;5412;59.450;18.124;2022-11-13T07:05:47;5.80;;;4.50;;
10721;SDS011;5412;59.450;18.124;2022-11-13T07:08:14;5.00;;;3.83;;
10721;SDS011;5412;59.450;18.124;2022-11-13T07:10:40;3.67;;;1.53;;
10721;SDS011;5412;59.450;18.124;2022-11-13T07:13:06;3.80;;;1.07;;
10721;SDS011;5412;59.450;18.124;2022-11-13T07:15:36;1.40;;;1.20;;
10721;SDS011;5412;59.450;18.124;2022-11-13T07:18:03;3.90;;;1.27;;
10721;SDS011;5412;59.450;18.124;2022-11-13T07:20:31;3.70;;;1.30;;
10721;SDS011;5412;59.450;18.124;2022-11-13T07:22:58;1.60;;;1.10;;
10721;SDS011;5412;59.450;18.124;2022-11-13T07:25:24;3.30;;;1.00;;
10721;SDS011;5412;59.450;18.124;2022-11-13T07:27:51;1.70;;;0.87;;
10721;SDS011;5412;59.450;18.124;2022-11-13T07:30:17;1.40;;;1.10;;
10721;SDS011;5412;59.450;18.124;2022-11-13T07:32:43;1.73;;;1.00;;
10721;SDS011;5412;59.450;18.124;2022-11-13T07:35:08;1.30;;;1.20;;
10721;SDS011;5412;59.450;18.124;2022-11-13T07:37:34;4.03;;;1.30;;
10721;SDS011;5412;59.450;18.124;2022-11-13T07:40:00;3.03;;;1.17;;
10721;SDS011;5412;59.450;18.124;2022-11-13T07:42:26;2.40;;;1.10;;
10721;SDS011;5412;59.450;18.124;2022-11-13T07:44:52;3.07;;;0.90;;
10721;SDS011;5412;59.450;18.124;2022-11-13T07:47:17;1.73;;;1.00;;
10721;SDS011;5412;59.450;18.124;2022-11-13T07:49:43;1.37;;;1.00;;
10721;SDS011;5412;59.450;18.124;2022-11-13T07:52:09;1.30;;;0.93;;
10721;SDS011;5412;59.450;18.124;2022-11-13T07:54:34;1.80;;;0.90;;
10721;SDS011;5412;59.450;18.124;2022-11-13T07:57:00;2.30;;;0.87;;
10721;SDS011;5412;59.450;18.124;2022-11-13T07:59:26;1.10;;;1.00;;
10721;SDS011;5412;59.450;18.124;2022-11-13T08:01:52;1.47;;;1.00;;
10721;SDS011;5412;59.450;18.124;2022-11-13T08:04:17;1.80;;;1.20;;
10721;SDS011;5412;59.450;18.124;2022-11-13T08:06:43;1.70;;;1.00;;
10721;SDS011;5412;59.450;18.124;2022-11-13T08:09:09;1.98;;;1.00;;
10721;SDS011;5412;59.450;18.124;2022-11-13T08:11:34;2.93;;;1.03;;
10721;SDS011;5412;59.450;18.124;2022-11-13T08:14:00;1.52;;;1.15;;
10721;SDS011;5412;59.450;18.124;2022-11-13T08:16:26;2.47;;;1.00;;
10721;SDS011;5412;59.450;18.124;2022-11-13T08:18:52;2.53;;;0.90;;
10721;SDS011;5412;59.450;18.124;2022-11-13T08:21:17;1.67;;;1.33;;
10721;SDS011;5412;59.450;18.124;2022-11-13T08:23:45;1.97;;;1.20;;
10721;SDS011;5412;59.450;18.124;2022-11-13T08:26:11;1.90;;;1.00;;
10721;SDS011;5412;59.450;18.124;2022-11-13T08:28:37;1.20;;;0.80;;
10721;SDS011;5412;59.450;18.124;2022-11-13T08:31:04;1.00;;;0.90;;
10721;SDS011;5412;59.450;18.124;2022-11-13T08:33:36;2.58;;;1.33;;
10721;SDS011;5412;59.450;18.124;2022-11-13T08:36:02;2.40;;;1.08;;
10721;SDS011;5412;59.450;18.124;2022-11-13T08:38:28;3.20;;;1.00;;
10721;SDS011;5412;59.450;18.124;2022-11-13T08:40:57;2.80;;;1.10;;
10721;SDS011;5412;59.450;18.124;2022-11-13T08:43:25;1.63;;;1.25;;
10721;SDS011;5412;59.450;18.124;2022-11-13T08:45:54;2.15;;;1.38;;
10721;SDS011;5412;59.450;18.124;2022-11-13T08:48:38;2.85;;;2.15;;
10721;SDS011;5412;59.450;18.124;2022-11-13T08:51:04;3.17;;;1.42;;
10721;SDS011;5412;59.450;18.124;2022-11-13T08:53:29;1.75;;;1.15;;
10721;SDS011;5412;59.450;18.124;2022-11-13T08:55:58;3.97;;;1.20;;
10721;SDS011;5412;59.450;18.124;2022-11-13T08:58:25;3.03;;;1.30;;
10721;SDS011;5412;59.450;18.124;2022-11-13T09:04:26;3.08;;;2.30;;
10721;SDS011;5412;59.450;18.124;2022-11-13T09:06:52;2.60;;;1.75;;
10721;SDS011;5412;59.450;18.124;2022-11-13T09:09:18;3.30;;;1.33;;
10721;SDS011;5412;59.450;18.124;2022-11-13T09:11:45;1.95;;;1.73;;
10721;SDS011;5412;59.450;18.124;2022-11-13T09:14:20;1.65;;;1.55;;
10721;SDS011;5412;59.450;18.124;2022-11-13T09:20:02;2.57;;;1.40;;
10721;SDS011;5412;59.450;18.124;2022-11-13T09:23:06;1.65;;;1.40;;
10721;SDS011;5412;59.450;18.124;2022-11-13T09:26:07;1.67;;;1.20;;
10721;SDS011;5412;59.450;18.124;2022-11-13T09:29:13;2.70;;;1.60;;
10721;SDS011;5412;59.450;18.124;2022-11-13T09:35:14;2.85;;;1.10;;
10721;SDS011;5412;59.450;18.124;2022-11-13T10:12:28;3.15;;;2.20;;
10721;SDS011;5412;59.450;18.124;2022-11-13T10:18:29;4.95;;;3.08;;
10721;SDS011;5412;59.450;18.124;2022-11-13T10:27:35;3.05;;;2.25;;
10721;SDS011;5412;59.450;18.124;2022-11-13T10:30:13;2.92;;;2.05;;
10721;SDS011;5412;59.450;18.124;2022-11-13T10:32:51;3.58;;;2.22;;
10721;SDS011;5412;59.450;18.124;2022-11-13T10:41:14;4.10;;;2.53;;
10721;SDS011;5412;59.450;18.124;2022-11-13T10:48:04;4.20;;;2.15;;
10721;SDS011;5412;59.450;18.124;2022-11-13T10:58:22;1.55;;;1.45;;
10721;SDS011;5412;59.450;18.124;2022-11-13T11:01:18;1.40;;;1.30;;
10721;SDS011;5412;59.450;18.124;2022-11-13T11:04:03;2.13;;;1.67;;
10721;SDS011;5412;59.450;18.124;2022-11-13T11:06:54;1.52;;;1.35;;
10721;SDS011;5412;59.450;18.124;2022-11-13T11:09:31;3.97;;;2.08;;
10721;SDS011;5412;59.450;18.124;2022-11-13T11:12:10;2.80;;;1.80;;
10721;SDS011;5412;59.450;18.124;2022-11-13T11:15:00;3.05;;;2.20;;
10721;SDS011;5412;59.450;18.124;2022-11-13T11:17:49;3.10;;;2.03;;
10721;SDS011;5412;59.450;18.124;2022-11-13T11:21:07;4.90;;;2.15;;
10721;SDS011;5412;59.450;18.124;2022-11-13T11:27:08;2.67;;;1.90;;
10721;SDS011;5412;59.450;18.124;2022-11-13T11:33:15;6.22;;;2.33;;
10721;SDS011;5412;59.450;18.124;2022-11-13T11:39:45;6.97;;;3.63;;
10721;SDS011;5412;59.450;18.124;2022-11-13T11:42:27;7.82;;;3.17;;
10721;SDS011;5412;59.450;18.124;2022-11-13T11:48:18;11.55;;;5.75;;
10721;SDS011;5412;59.450;18.124;2022-11-13T11:53:52;4.43;;;2.00;;
10721;SDS011;5412;59.450;18.124;2022-11-13T12:00:12;2.40;;;1.70;;
10721;SDS011;5412;59.450;18.124;2022-11-13T12:05:54;5.78;;;2.35;;
10721;SDS011;5412;59.450;18.124;2022-11-13T12:08:38;5.32;;;2.03;;
10721;SDS011;5412;59.450;18.124;2022-11-13T12:11:27;4.82;;;2.25;;
10721;SDS011;5412;59.450;18.124;2022-11-13T12:14:07;4.68;;;2.20;;
10721;SDS011;5412;59.450;18.124;2022-11-13T12:20:02;2.60;;;1.90;;
10721;SDS011;5412;59.450;18.124;2022-11-13T12:25:15;6.70;;;2.17;;
10721;SDS011;5412;59.450;18.124;2022-11-13T12:36:18;5.07;;;1.80;;
10721;SDS011;5412;59.450;18.124;2022-11-13T12:38:53;10.77;;;2.10;;
10721;SDS011;5412;59.450;18.124;2022-11-13T12:46:40;3.97;;;2.08;;
10721;SDS011;5412;59.450;18.124;2022-11-13T12:49:14;2.95;;;1.58;;
10721;SDS011;5412;59.450;18.124;2022-11-13T12:51:53;4.03;;;1.60;;
10721;SDS011;5412;59.450;18.124;2022-11-13T12:59:40;6.30;;;2.13;;
10721;SDS011;5412;59.450;18.124;2022-11-13T13:15:55;9.35;;;2.03;;
10721;SDS011;5412;59.450;18.124;2022-11-13T13:18:36;6.40;;;1.88;;
10721;SDS011;5412;59.450;18.124;2022-11-13T13:21:10;5.18;;;1.85;;
10721;SDS011;5412;59.450;18.124;2022-11-13T13:23:41;6.20;;;1.95;;
10721;SDS011;5412;59.450;18.124;2022-11-13T13:28:38;4.65;;;2.08;;
10721;SDS011;5412;59.450;18.124;2022-11-13T13:36:45;7.10;;;2.50;;
10721;SDS011;5412;59.450;18.124;2022-11-13T13:44:25;5.53;;;1.88;;
10721;SDS011;5412;59.450;18.124;2022-11-13T13:46:57;8.32;;;1.90;;
10721;SDS011;5412;59.450;18.124;2022-11-13T13:49:23;6.43;;;2.47;;
10721;SDS011;5412;59.450;18.124;2022-11-13T13:51:51;5.28;;;1.98;;
10721;SDS011;5412;59.450;18.124;2022-11-13T13:54:28;5.15;;;1.55;;
10721;SDS011;5412;59.450;18.124;2022-11-13T13:56:56;6.68;;;1.60;;
10721;SDS011;5412;59.450;18.124;2022-11-13T13:59:32;8.43;;;1.67;;
10721;SDS011;5412;59.450;18.124;2022-11-13T14:02:01;7.03;;;2.03;;
10721;SDS011;5412;59.450;18.124;2022-11-13T14:04:28;6.00;;;1.80;;
10721;SDS011;5412;59.450;18.124;2022-11-13T14:06:59;7.43;;;2.10;;
10721;SDS011;5412;59.450;18.124;2022-11-13T14:09:27;5.65;;;1.73;;
10721;SDS011;5412;59.450;18.124;2022-11-13T14:14:26;3.45;;;1.45;;
10721;SDS011;5412;59.450;18.124;2022-11-13T14:16:53;7.57;;;1.92;;
10721;SDS011;5412;59.450;18.124;2022-11-13T14:19:21;9.55;;;2.10;;
10721;SDS011;5412;59.450;18.124;2022-11-13T14:21:51;4.65;;;2.10;;
10721;SDS011;5412;59.450;18.124;2022-11-13T14:24:24;7.47;;;2.30;;
10721;SDS011;5412;59.450;18.124;2022-11-13T14:26:51;4.75;;;2.08;;
10721;SDS011;5412;59.450;18.124;2022-11-13T14:29:22;6.97;;;1.95;;
10721;SDS011;5412;59.450;18.124;2022-11-13T14:31:52;7.97;;;2.00;;
10721;SDS011;5412;59.450;18.124;2022-11-13T14:34:18;5.82;;;1.75;;
10721;SDS011;5412;59.450;18.124;2022-11-13T14:36:46;3.63;;;1.70;;
10721;SDS011;5412;59.450;18.124;2022-11-13T14:39:29;6.82;;;2.13;;
10721;SDS011;5412;59.450;18.124;2022-11-13T14:41:58;5.50;;;2.45;;
10721;SDS011;5412;59.450;18.124;2022-11-13T14:44:28;4.15;;;1.90;;
10721;SDS011;5412;59.450;18.124;2022-11-13T14:47:00;4.93;;;2.17;;
10721;SDS011;5412;59.450;18.124;2022-11-13T14:49:35;7.97;;;2.38;;
10721;SDS011;5412;59.450;18.124;2022-11-13T14:52:02;8.75;;;2.10;;
10721;SDS011;5412;59.450;18.124;2022-11-13T14:54:35;4.75;;;2.10;;
10721;SDS011;5412;59.450;18.124;2022-11-13T14:57:05;7.85;;;4.28;;
10721;SDS011;5412;59.450;18.124;2022-11-13T14:59:36;7.38;;;3.20;;
10721;SDS011;5412;59.450;18.124;2022-11-13T15:02:02;8.50;;;4.25;;
10721;SDS011;5412;59.450;18.124;2022-11-13T15:04:28;8.15;;;2.38;;
10721;SDS011;5412;59.450;18.124;2022-11-13T15:06:58;8.23;;;3.78;;
10721;SDS011;5412;59.450;18.124;2022-11-13T15:09:26;8.32;;;2.10;;
10721;SDS011;5412;59.450;18.124;2022-11-13T15:11:54;6.68;;;2.30;;
10721;SDS011;5412;59.450;18.124;2022-11-13T15:14:20;5.60;;;2.30;;
10721;SDS011;5412;59.450;18.124;2022-11-13T15:16:47;5.90;;;2.20;;
10721;SDS011;5412;59.450;18.124;2022-11-13T15:19:27;10.18;;;2.85;;
10721;SDS011;5412;59.450;18.124;2022-11-13T15:21:55;8.35;;;2.45;;
10721;SDS011;5412;59.450;18.124;2022-11-13T15:24:21;6.45;;;2.28;;
10721;SDS011;5412;59.450;18.124;2022-11-13T15:26:47;11.20;;;3.13;;
10721;SDS011;5412;59.450;18.124;2022-11-13T15:29:13;5.07;;;2.33;;
10721;SDS011;5412;59.450;18.124;2022-11-13T15:31:40;5.32;;;2.20;;
10721;SDS011;5412;59.450;18.124;2022-11-13T15:34:12;7.57;;;2.50;;
10721;SDS011;5412;59.450;18.124;2022-11-13T15:36:38;11.20;;;2.72;;
10721;SDS011;5412;59.450;18.124;2022-11-13T15:39:04;8.73;;;2.97;;
10721;SDS011;5412;59.450;18.124;2022-11-13T15:41:31;10.23;;;2.90;;
10721;SDS011;5412;59.450;18.124;2022-11-13T15:43:58;7.50;;;3.00;;
10721;SDS011;5412;59.450;18.124;2022-11-13T15:46:24;6.88;;;2.28;;
10721;SDS011;5412;59.450;18.124;2022-11-13T15:48:51;6.13;;;2.63;;
10721;SDS011;5412;59.450;18.124;2022-11-13T15:51:34;5.75;;;2.35;;
10721;SDS011;5412;59.450;18.124;2022-11-13T15:54:13;5.20;;;2.55;;
10721;SDS011;5412;59.450;18.124;2022-11-13T15:56:44;6.78;;;2.25;;
10721;SDS011;5412;59.450;18.124;2022-11-13T15:59:11;8.10;;;2.90;;
10721;SDS011;5412;59.450;18.124;2022-11-13T16:01:38;6.45;;;2.67;;
10721;SDS011;5412;59.450;18.124;2022-11-13T16:04:04;10.07;;;3.25;;
10721;SDS011;5412;59.450;18.124;2022-11-13T16:06:31;11.23;;;3.38;;
10721;SDS011;5412;59.450;18.124;2022-11-13T16:08:58;14.80;;;3.03;;
10721;SDS011;5412;59.450;18.124;2022-11-13T16:11:24;10.10;;;3.13;;
10721;SDS011;5412;59.450;18.124;2022-11-13T16:13:50;5.45;;;2.20;;
10721;SDS011;5412;59.450;18.124;2022-11-13T16:16:26;6.28;;;2.42;;
10721;SDS011;5412;59.450;18.124;2022-11-13T16:18:57;7.07;;;2.38;;
10721;SDS011;5412;59.450;18.124;2022-11-13T16:21:24;12.85;;;2.55;;
10721;SDS011;5412;59.450;18.124;2022-11-13T16:23:49;6.95;;;2.53;;
10721;SDS011;5412;59.450;18.124;2022-11-13T16:26:17;5.15;;;2.50;;
10721;SDS011;5412;59.450;18.124;2022-11-13T16:28:44;8.07;;;2.85;;
10721;SDS011;5412;59.450;18.124;2022-11-13T16:31:11;10.65;;;3.13;;
10721;SDS011;5412;59.450;18.124;2022-11-13T16:33:37;7.55;;;3.17;;
10721;SDS011;5412;59.450;18.124;2022-11-13T16:36:03;7.55;;;3.22;;
10721;SDS011;5412;59.450;18.124;2022-11-13T16:38:29;8.40;;;3.30;;
10721;SDS011;5412;59.450;18.124;2022-11-13T16:40:55;8.73;;;3.75;;
10721;SDS011;5412;59.450;18.124;2022-11-13T16:43:21;9.68;;;3.70;;
10721;SDS011;5412;59.450;18.124;2022-11-13T16:45:46;7.35;;;4.05;;
10721;SDS011;5412;59.450;18.124;2022-11-13T16:48:13;11.98;;;4.70;;
10721;SDS011;5412;59.450;18.124;2022-11-13T16:50:40;12.20;;;4.30;;
10721;SDS011;5412;59.450;18.124;2022-11-13T16:53:06;7.15;;;4.00;;
10721;SDS011;5412;59.450;18.124;2022-11-13T16:55:36;9.30;;;3.83;;
10721;SDS011;5412;59.450;18.124;2022-11-13T16:58:02;8.35;;;3.80;;
10721;SDS011;5412;59.450;18.124;2022-11-13T17:00:29;6.68;;;3.92;;
10721;SDS011;5412;59.450;18.124;2022-11-13T17:02:54;8.80;;;4.03;;
10721;SDS011;5412;59.450;18.124;2022-11-13T17:05:21;11.43;;;4.53;;
10721;SDS011;5412;59.450;18.124;2022-11-13T17:07:47;10.38;;;3.85;;
10721;SDS011;5412;59.450;18.124;2022-11-13T17:10:17;12.23;;;4.00;;
10721;SDS011;5412;59.450;18.124;2022-11-13T17:12:50;8.57;;;3.75;;
10721;SDS011;5412;59.450;18.124;2022-11-13T17:15:17;8.35;;;4.22;;
10721;SDS011;5412;59.450;18.124;2022-11-13T17:17:43;9.68;;;4.28;;
10721;SDS011;5412;59.450;18.124;2022-11-13T17:20:10;8.60;;;4.10;;
10721;SDS011;5412;59.450;18.124;2022-11-13T17:22:37;10.02;;;3.67;;
10721;SDS011;5412;59.450;18.124;2022-11-13T17:25:04;9.70;;;3.78;;
10721;SDS011;5412;59.450;18.124;2022-11-13T17:27:30;9.70;;;4.00;;
10721;SDS011;5412;59.450;18.124;2022-11-13T17:29:56;8.93;;;4.38;;
10721;SDS011;5412;59.450;18.124;2022-11-13T17:32:21;10.65;;;4.15;;
10721;SDS011;5412;59.450;18.124;2022-11-13T17:34:47;13.07;;;4.72;;